sensor_id;sensor_type;location;lat;lon;timestamp;P1;durP1;ratioP1;P2;durP2;ratioP2
15383;SDS011;7790;53.022;12.968;2023-04-03T00:03:40;1.57;;;0.90;;
15383;SDS011;7790;53.022;12.968;2023-04-03T00:07:44;0.73;;;0.63;;
15383;SDS011;7790;53.022;12.968;2023-04-03T00:11:45;1.13;;;0.70;;
15383;SDS011;7790;53.022;12.968;2023-04-03T00:15:46;0.90;;;0.60;;
15383;SDS011;7790;53.022;12.968;2023-04-03T00:19:47;0.53;;;0.53;;
15383;SDS011;7790;53.022;12.968;2023-04-03T00:23:48;1.00;;;0.80;;
15383;SDS011;7790;53.022;12.968;2023-04-03T00:27:48;0.60;;;0.40;;
15383;SDS011;7790;53.022;12.968;2023-04-03T00:31:50;0.97;;;0.70;;
15383;SDS011;7790;53.022;12.968;2023-04-03T00:35:51;1.27;;;0.73;;
15383;SDS011;7790;53.022;12.968;2023-04-03T00:39:52;0.47;;;0.30;;
15383;SDS011;7790;53.022;12.968;2023-04-03T00:43:53;0.90;;;0.63;;
15383;SDS011;7790;53.022;12.968;2023-04-03T00:47:54;0.87;;;0.50;;
15383;SDS011;7790;53.022;12.968;2023-04-03T00:51:56;0.60;;;0.60;;
15383;SDS011;7790;53.022;12.968;2023-04-03T00:55:59;0.80;;;0.70;;
15383;SDS011;7790;53.022;12.968;2023-04-03T01:00:03;1.23;;;0.83;;
15383;SDS011;7790;53.022;12.968;2023-04-03T01:04:25;0.50;;;0.40;;
15383;SDS011;7790;53.022;12.968;2023-04-03T01:08:37;0.60;;;0.50;;
15383;SDS011;7790;53.022;12.968;2023-04-03T01:12:39;0.60;;;0.50;;
15383;SDS011;7790;53.022;12.968;2023-04-03T01:16:41;0.63;;;0.50;;
15383;SDS011;7790;53.022;12.968;2023-04-03T01:24:46;0.70;;;0.60;;
15383;SDS011;7790;53.022;12.968;2023-04-03T01:28:47;0.70;;;0.50;;
15383;SDS011;7790;53.022;12.968;2023-04-03T01:32:48;1.03;;;0.63;;
15383;SDS011;7790;53.022;12.968;2023-04-03T01:36:49;0.70;;;0.60;;
15383;SDS011;7790;53.022;12.968;2023-04-03T01:40:51;1.60;;;0.77;;
15383;SDS011;7790;53.022;12.968;2023-04-03T01:44:52;1.03;;;0.70;;
15383;SDS011;7790;53.022;12.968;2023-04-03T01:48:53;3.47;;;1.07;;
15383;SDS011;7790;53.022;12.968;2023-04-03T01:52:55;1.33;;;0.60;;
15383;SDS011;7790;53.022;12.968;2023-04-03T01:56:55;1.20;;;0.50;;
15383;SDS011;7790;53.022;12.968;2023-04-03T02:00:57;0.73;;;0.60;;
15383;SDS011;7790;53.022;12.968;2023-04-03T02:04:57;0.50;;;0.50;;
15383;SDS011;7790;53.022;12.968;2023-04-03T02:08:58;0.77;;;0.60;;
15383;SDS011;7790;53.022;12.968;2023-04-03T02:12:59;0.90;;;0.47;;
15383;SDS011;7790;53.022;12.968;2023-04-03T02:17:01;0.60;;;0.60;;
15383;SDS011;7790;53.022;12.968;2023-04-03T02:21:05;0.60;;;0.53;;
15383;SDS011;7790;53.022;12.968;2023-04-03T02:25:06;1.20;;;0.70;;
15383;SDS011;7790;53.022;12.968;2023-04-03T02:29:07;0.50;;;0.40;;
15383;SDS011;7790;53.022;12.968;2023-04-03T02:33:09;1.23;;;0.63;;
15383;SDS011;7790;53.022;12.968;2023-04-03T02:37:11;0.87;;;0.60;;
15383;SDS011;7790;53.022;12.968;2023-04-03T02:41:12;0.50;;;0.33;;
15383;SDS011;7790;53.022;12.968;2023-04-03T02:45:14;0.43;;;0.40;;
15383;SDS011;7790;53.022;12.968;2023-04-03T02:49:16;0.60;;;0.60;;
15383;SDS011;7790;53.022;12.968;2023-04-03T02:53:17;0.70;;;0.67;;
15383;SDS011;7790;53.022;12.968;2023-04-03T02:57:19;1.07;;;0.50;;
15383;SDS011;7790;53.022;12.968;2023-04-03T03:01:20;0.43;;;0.40;;
15383;SDS011;7790;53.022;12.968;2023-04-03T03:05:21;0.93;;;0.57;;
15383;SDS011;7790;53.022;12.968;2023-04-03T03:09:22;1.37;;;0.67;;
15383;SDS011;7790;53.022;12.968;2023-04-03T03:13:23;0.53;;;0.50;;
15383;SDS011;7790;53.022;12.968;2023-04-03T03:17:24;0.63;;;0.43;;
15383;SDS011;7790;53.022;12.968;2023-04-03T03:21:25;1.03;;;0.60;;
15383;SDS011;7790;53.022;12.968;2023-04-03T03:25:26;0.50;;;0.50;;
15383;SDS011;7790;53.022;12.968;2023-04-03T03:29:27;1.17;;;0.60;;
15383;SDS011;7790;53.022;12.968;2023-04-03T03:33:31;0.37;;;0.33;;
15383;SDS011;7790;53.022;12.968;2023-04-03T03:37:33;0.37;;;0.33;;
15383;SDS011;7790;53.022;12.968;2023-04-03T03:41:34;0.50;;;0.50;;
15383;SDS011;7790;53.022;12.968;2023-04-03T03:45:37;1.33;;;0.67;;
15383;SDS011;7790;53.022;12.968;2023-04-03T03:49:38;0.50;;;0.40;;
15383;SDS011;7790;53.022;12.968;2023-04-03T03:53:38;1.20;;;0.80;;
15383;SDS011;7790;53.022;12.968;2023-04-03T03:57:43;0.60;;;0.50;;
15383;SDS011;7790;53.022;12.968;2023-04-03T04:01:45;0.80;;;0.43;;
15383;SDS011;7790;53.022;12.968;2023-04-03T04:05:46;0.70;;;0.47;;
15383;SDS011;7790;53.022;12.968;2023-04-03T04:09:48;0.83;;;0.60;;
15383;SDS011;7790;53.022;12.968;2023-04-03T04:13:49;1.00;;;0.43;;
15383;SDS011;7790;53.022;12.968;2023-04-03T04:17:52;1.27;;;0.77;;
15383;SDS011;7790;53.022;12.968;2023-04-03T04:21:54;0.33;;;0.30;;
15383;SDS011;7790;53.022;12.968;2023-04-03T04:25:56;0.73;;;0.50;;
15383;SDS011;7790;53.022;12.968;2023-04-03T04:29:57;0.77;;;0.40;;
15383;SDS011;7790;53.022;12.968;2023-04-03T04:33:58;0.83;;;0.60;;
15383;SDS011;7790;53.022;12.968;2023-04-03T04:37:59;0.73;;;0.40;;
15383;SDS011;7790;53.022;12.968;2023-04-03T04:42:00;0.40;;;0.40;;
15383;SDS011;7790;53.022;12.968;2023-04-03T04:46:08;0.50;;;0.50;;
15383;SDS011;7790;53.022;12.968;2023-04-03T04:50:17;0.80;;;0.40;;
15383;SDS011;7790;53.022;12.968;2023-04-03T04:54:19;0.93;;;0.60;;
15383;SDS011;7790;53.022;12.968;2023-04-03T04:58:21;0.83;;;0.67;;
15383;SDS011;7790;53.022;12.968;2023-04-03T05:02:26;1.10;;;0.67;;
15383;SDS011;7790;53.022;12.968;2023-04-03T05:06:29;1.20;;;0.53;;
15383;SDS011;7790;53.022;12.968;2023-04-03T05:10:32;1.03;;;0.50;;
15383;SDS011;7790;53.022;12.968;2023-04-03T05:14:33;0.30;;;0.30;;
15383;SDS011;7790;53.022;12.968;2023-04-03T05:18:39;0.43;;;0.43;;
15383;SDS011;7790;53.022;12.968;2023-04-03T05:22:44;1.03;;;0.50;;
15383;SDS011;7790;53.022;12.968;2023-04-03T05:26:47;1.93;;;0.70;;
15383;SDS011;7790;53.022;12.968;2023-04-03T05:30:53;0.80;;;0.23;;
15383;SDS011;7790;53.022;12.968;2023-04-03T05:35:02;0.40;;;0.40;;
15383;SDS011;7790;53.022;12.968;2023-04-03T05:39:03;1.13;;;0.67;;
15383;SDS011;7790;53.022;12.968;2023-04-03T05:43:05;0.93;;;0.50;;
15383;SDS011;7790;53.022;12.968;2023-04-03T05:47:09;0.57;;;0.40;;
15383;SDS011;7790;53.022;12.968;2023-04-03T05:51:13;0.33;;;0.33;;
15383;SDS011;7790;53.022;12.968;2023-04-03T05:55:18;0.20;;;0.20;;
15383;SDS011;7790;53.022;12.968;2023-04-03T05:59:19;0.60;;;0.47;;
15383;SDS011;7790;53.022;12.968;2023-04-03T06:03:23;0.67;;;0.30;;
15383;SDS011;7790;53.022;12.968;2023-04-03T06:07:25;0.77;;;0.40;;
15383;SDS011;7790;53.022;12.968;2023-04-03T06:11:28;0.50;;;0.50;;
15383;SDS011;7790;53.022;12.968;2023-04-03T06:15:29;1.00;;;0.63;;
15383;SDS011;7790;53.022;12.968;2023-04-03T06:19:30;0.73;;;0.40;;
15383;SDS011;7790;53.022;12.968;2023-04-03T06:23:32;1.03;;;0.67;;
15383;SDS011;7790;53.022;12.968;2023-04-03T06:27:33;1.30;;;0.50;;
15383;SDS011;7790;53.022;12.968;2023-04-03T06:31:34;2.23;;;0.50;;
15383;SDS011;7790;53.022;12.968;2023-04-03T06:35:36;0.80;;;0.43;;
15383;SDS011;7790;53.022;12.968;2023-04-03T06:39:38;0.83;;;0.43;;
15383;SDS011;7790;53.022;12.968;2023-04-03T06:43:40;3.63;;;0.70;;
15383;SDS011;7790;53.022;12.968;2023-04-03T06:47:41;0.90;;;0.67;;
15383;SDS011;7790;53.022;12.968;2023-04-03T06:51:42;0.80;;;0.30;;
15383;SDS011;7790;53.022;12.968;2023-04-03T06:55:42;1.87;;;0.60;;
15383;SDS011;7790;53.022;12.968;2023-04-03T06:59:43;5.53;;;0.80;;
15383;SDS011;7790;53.022;12.968;2023-04-03T07:03:44;7.33;;;1.23;;
15383;SDS011;7790;53.022;12.968;2023-04-03T07:07:46;5.57;;;0.73;;
15383;SDS011;7790;53.022;12.968;2023-04-03T07:11:47;1.30;;;0.63;;
15383;SDS011;7790;53.022;12.968;2023-04-03T07:15:48;3.93;;;0.70;;
15383;SDS011;7790;53.022;12.968;2023-04-03T07:19:50;7.17;;;1.20;;
15383;SDS011;7790;53.022;12.968;2023-04-03T07:23:51;4.53;;;1.03;;
15383;SDS011;7790;53.022;12.968;2023-04-03T07:27:52;4.17;;;1.03;;
15383;SDS011;7790;53.022;12.968;2023-04-03T07:31:54;3.53;;;1.23;;
15383;SDS011;7790;53.022;12.968;2023-04-03T07:35:56;5.37;;;0.93;;
15383;SDS011;7790;53.022;12.968;2023-04-03T07:39:57;4.43;;;1.07;;
15383;SDS011;7790;53.022;12.968;2023-04-03T07:43:59;5.90;;;1.17;;
15383;SDS011;7790;53.022;12.968;2023-04-03T07:48:00;3.07;;;0.90;;
15383;SDS011;7790;53.022;12.968;2023-04-03T07:52:02;6.53;;;0.97;;
15383;SDS011;7790;53.022;12.968;2023-04-03T07:56:03;2.03;;;0.90;;
15383;SDS011;7790;53.022;12.968;2023-04-03T08:00:05;2.30;;;0.80;;
15383;SDS011;7790;53.022;12.968;2023-04-03T08:04:12;2.17;;;0.67;;
15383;SDS011;7790;53.022;12.968;2023-04-03T08:08:20;4.60;;;2.10;;
15383;SDS011;7790;53.022;12.968;2023-04-03T08:12:22;5.87;;;2.20;;
15383;SDS011;7790;53.022;12.968;2023-04-03T08:16:23;4.17;;;1.67;;
15383;SDS011;7790;53.022;12.968;2023-04-03T08:20:27;4.00;;;2.17;;
15383;SDS011;7790;53.022;12.968;2023-04-03T08:24:28;3.63;;;1.50;;
15383;SDS011;7790;53.022;12.968;2023-04-03T08:28:29;4.27;;;1.53;;
15383;SDS011;7790;53.022;12.968;2023-04-03T08:32:30;3.53;;;1.60;;
15383;SDS011;7790;53.022;12.968;2023-04-03T08:36:31;2.07;;;1.50;;
15383;SDS011;7790;53.022;12.968;2023-04-03T08:40:32;2.33;;;1.30;;
15383;SDS011;7790;53.022;12.968;2023-04-03T08:48:55;2.47;;;1.00;;
15383;SDS011;7790;53.022;12.968;2023-04-03T08:52:59;2.17;;;1.10;;
15383;SDS011;7790;53.022;12.968;2023-04-03T08:57:04;2.40;;;1.30;;
15383;SDS011;7790;53.022;12.968;2023-04-03T09:09:39;3.37;;;1.23;;
15383;SDS011;7790;53.022;12.968;2023-04-03T09:30:46;2.40;;;1.27;;
15383;SDS011;7790;53.022;12.968;2023-04-03T09:34:47;1.23;;;0.90;;
15383;SDS011;7790;53.022;12.968;2023-04-03T09:39:07;1.57;;;0.90;;
15383;SDS011;7790;53.022;12.968;2023-04-03T09:47:25;1.73;;;0.97;;
15383;SDS011;7790;53.022;12.968;2023-04-03T09:51:27;2.13;;;0.93;;
15383;SDS011;7790;53.022;12.968;2023-04-03T09:55:28;3.77;;;1.20;;
15383;SDS011;7790;53.022;12.968;2023-04-03T09:59:29;1.63;;;0.87;;
15383;SDS011;7790;53.022;12.968;2023-04-03T10:03:33;1.07;;;0.63;;
15383;SDS011;7790;53.022;12.968;2023-04-03T10:07:36;1.67;;;0.80;;
15383;SDS011;7790;53.022;12.968;2023-04-03T10:11:38;1.20;;;0.73;;
15383;SDS011;7790;53.022;12.968;2023-04-03T10:16:12;2.17;;;0.77;;
15383;SDS011;7790;53.022;12.968;2023-04-03T10:20:37;1.10;;;0.87;;
15383;SDS011;7790;53.022;12.968;2023-04-03T10:24:51;3.37;;;1.00;;
15383;SDS011;7790;53.022;12.968;2023-04-03T10:38:18;1.50;;;0.80;;
15383;SDS011;7790;53.022;12.968;2023-04-03T10:43:16;0.93;;;0.60;;
15383;SDS011;7790;53.022;12.968;2023-04-03T10:47:02;3.50;;;1.00;;
15383;SDS011;7790;53.022;12.968;2023-04-03T10:59:32;5.60;;;1.27;;
15383;SDS011;7790;53.022;12.968;2023-04-03T11:03:56;3.97;;;1.00;;
15383;SDS011;7790;53.022;12.968;2023-04-03T11:08:01;1.23;;;0.70;;
15383;SDS011;7790;53.022;12.968;2023-04-03T11:12:28;2.23;;;0.80;;
15383;SDS011;7790;53.022;12.968;2023-04-03T11:16:42;2.73;;;0.70;;
15383;SDS011;7790;53.022;12.968;2023-04-03T11:21:00;3.07;;;0.70;;
15383;SDS011;7790;53.022;12.968;2023-04-03T11:25:23;1.37;;;0.73;;
15383;SDS011;7790;53.022;12.968;2023-04-03T11:29:29;2.93;;;0.80;;
15383;SDS011;7790;53.022;12.968;2023-04-03T11:37:55;2.70;;;0.93;;
15383;SDS011;7790;53.022;12.968;2023-04-03T11:42:14;1.33;;;0.80;;
15383;SDS011;7790;53.022;12.968;2023-04-03T11:59:23;0.67;;;0.60;;
15383;SDS011;7790;53.022;12.968;2023-04-03T12:07:28;2.17;;;0.87;;
15383;SDS011;7790;53.022;12.968;2023-04-03T12:11:30;1.00;;;0.63;;
15383;SDS011;7790;53.022;12.968;2023-04-03T12:19:41;3.20;;;0.60;;
15383;SDS011;7790;53.022;12.968;2023-04-03T12:28:23;0.67;;;0.60;;
15383;SDS011;7790;53.022;12.968;2023-04-03T12:37:07;0.97;;;0.70;;
15383;SDS011;7790;53.022;12.968;2023-04-03T12:49:53;2.27;;;0.70;;
15383;SDS011;7790;53.022;12.968;2023-04-03T12:53:58;1.80;;;0.60;;
15383;SDS011;7790;53.022;12.968;2023-04-03T12:58:19;1.27;;;0.60;;
15383;SDS011;7790;53.022;12.968;2023-04-03T13:02:29;0.70;;;0.53;;
15383;SDS011;7790;53.022;12.968;2023-04-03T13:06:38;0.97;;;0.70;;
15383;SDS011;7790;53.022;12.968;2023-04-03T13:10:47;2.23;;;0.80;;
15383;SDS011;7790;53.022;12.968;2023-04-03T13:14:56;0.77;;;0.50;;
15383;SDS011;7790;53.022;12.968;2023-04-03T13:18:59;1.80;;;0.77;;
15383;SDS011;7790;53.022;12.968;2023-04-03T13:23:01;0.97;;;0.60;;
15383;SDS011;7790;53.022;12.968;2023-04-03T13:27:05;1.17;;;0.60;;
15383;SDS011;7790;53.022;12.968;2023-04-03T13:35:27;3.03;;;0.80;;
15383;SDS011;7790;53.022;12.968;2023-04-03T13:39:38;0.87;;;0.60;;
15383;SDS011;7790;53.022;12.968;2023-04-03T13:43:40;0.60;;;0.60;;
15383;SDS011;7790;53.022;12.968;2023-04-03T13:47:42;0.80;;;0.73;;
15383;SDS011;7790;53.022;12.968;2023-04-03T13:51:44;1.63;;;0.80;;
15383;SDS011;7790;53.022;12.968;2023-04-03T13:55:53;1.43;;;0.60;;
15383;SDS011;7790;53.022;12.968;2023-04-03T13:59:57;1.07;;;0.83;;
15383;SDS011;7790;53.022;12.968;2023-04-03T14:03:59;1.90;;;0.87;;
15383;SDS011;7790;53.022;12.968;2023-04-03T14:08:01;0.80;;;0.70;;
15383;SDS011;7790;53.022;12.968;2023-04-03T14:12:05;0.80;;;0.70;;
15383;SDS011;7790;53.022;12.968;2023-04-03T14:16:16;1.27;;;0.80;;
15383;SDS011;7790;53.022;12.968;2023-04-03T14:20:21;1.60;;;0.60;;
15383;SDS011;7790;53.022;12.968;2023-04-03T14:24:24;1.13;;;0.60;;
15383;SDS011;7790;53.022;12.968;2023-04-03T14:28:25;1.27;;;0.60;;
15383;SDS011;7790;53.022;12.968;2023-04-03T14:32:26;0.60;;;0.60;;
15383;SDS011;7790;53.022;12.968;2023-04-03T14:36:28;1.07;;;0.70;;
15383;SDS011;7790;53.022;12.968;2023-04-03T14:40:30;1.07;;;0.77;;
15383;SDS011;7790;53.022;12.968;2023-04-03T14:44:31;1.83;;;1.10;;
15383;SDS011;7790;53.022;12.968;2023-04-03T14:48:33;2.40;;;0.80;;
15383;SDS011;7790;53.022;12.968;2023-04-03T14:52:35;0.87;;;0.70;;
15383;SDS011;7790;53.022;12.968;2023-04-03T14:56:36;0.60;;;0.60;;
15383;SDS011;7790;53.022;12.968;2023-04-03T15:00:37;1.03;;;0.90;;
15383;SDS011;7790;53.022;12.968;2023-04-03T15:04:38;1.03;;;0.70;;
15383;SDS011;7790;53.022;12.968;2023-04-03T15:08:39;1.43;;;0.70;;
15383;SDS011;7790;53.022;12.968;2023-04-03T15:12:42;0.93;;;0.60;;
15383;SDS011;7790;53.022;12.968;2023-04-03T15:16:43;1.80;;;0.73;;
15383;SDS011;7790;53.022;12.968;2023-04-03T15:20:44;1.67;;;0.77;;
15383;SDS011;7790;53.022;12.968;2023-04-03T15:24:46;1.10;;;0.97;;
15383;SDS011;7790;53.022;12.968;2023-04-03T15:28:47;1.97;;;0.80;;
15383;SDS011;7790;53.022;12.968;2023-04-03T15:32:48;0.87;;;0.60;;
15383;SDS011;7790;53.022;12.968;2023-04-03T15:36:49;1.17;;;0.63;;
15383;SDS011;7790;53.022;12.968;2023-04-03T15:40:53;2.70;;;0.87;;
15383;SDS011;7790;53.022;12.968;2023-04-03T15:44:55;3.73;;;0.83;;
15383;SDS011;7790;53.022;12.968;2023-04-03T15:48:55;0.93;;;0.60;;
15383;SDS011;7790;53.022;12.968;2023-04-03T15:52:57;2.23;;;0.50;;
15383;SDS011;7790;53.022;12.968;2023-04-03T15:56:58;5.83;;;0.87;;
15383;SDS011;7790;53.022;12.968;2023-04-03T16:00:59;3.60;;;1.00;;
15383;SDS011;7790;53.022;12.968;2023-04-03T16:05:01;3.57;;;0.80;;
15383;SDS011;7790;53.022;12.968;2023-04-03T16:09:02;2.10;;;0.87;;
15383;SDS011;7790;53.022;12.968;2023-04-03T16:13:04;2.07;;;1.00;;
15383;SDS011;7790;53.022;12.968;2023-04-03T16:17:05;1.13;;;0.57;;
15383;SDS011;7790;53.022;12.968;2023-04-03T16:21:06;4.33;;;1.20;;
15383;SDS011;7790;53.022;12.968;2023-04-03T16:25:09;5.90;;;0.90;;
15383;SDS011;7790;53.022;12.968;2023-04-03T16:29:11;2.27;;;0.70;;
15383;SDS011;7790;53.022;12.968;2023-04-03T16:33:12;4.60;;;1.10;;
15383;SDS011;7790;53.022;12.968;2023-04-03T16:37:13;1.93;;;0.50;;
15383;SDS011;7790;53.022;12.968;2023-04-03T16:41:15;2.40;;;0.70;;
15383;SDS011;7790;53.022;12.968;2023-04-03T16:45:18;4.33;;;1.47;;
15383;SDS011;7790;53.022;12.968;2023-04-03T16:49:19;1.47;;;0.67;;
15383;SDS011;7790;53.022;12.968;2023-04-03T16:53:20;2.70;;;1.03;;
15383;SDS011;7790;53.022;12.968;2023-04-03T16:57:22;2.07;;;0.90;;
15383;SDS011;7790;53.022;12.968;2023-04-03T17:01:26;3.27;;;0.70;;
15383;SDS011;7790;53.022;12.968;2023-04-03T17:05:27;3.67;;;0.97;;
15383;SDS011;7790;53.022;12.968;2023-04-03T17:09:28;1.83;;;0.80;;
15383;SDS011;7790;53.022;12.968;2023-04-03T17:13:29;1.27;;;0.70;;
15383;SDS011;7790;53.022;12.968;2023-04-03T17:17:32;2.40;;;0.60;;
15383;SDS011;7790;53.022;12.968;2023-04-03T17:21:33;2.77;;;0.83;;
15383;SDS011;7790;53.022;12.968;2023-04-03T17:25:34;2.27;;;0.73;;
15383;SDS011;7790;53.022;12.968;2023-04-03T17:29:35;7.20;;;1.23;;
15383;SDS011;7790;53.022;12.968;2023-04-03T17:33:36;6.03;;;1.00;;
15383;SDS011;7790;53.022;12.968;2023-04-03T17:37:37;3.67;;;0.90;;
15383;SDS011;7790;53.022;12.968;2023-04-03T17:41:38;3.27;;;1.23;;
15383;SDS011;7790;53.022;12.968;2023-04-03T17:45:38;3.53;;;0.60;;
15383;SDS011;7790;53.022;12.968;2023-04-03T17:49:40;5.80;;;0.93;;
15383;SDS011;7790;53.022;12.968;2023-04-03T17:53:41;5.60;;;1.13;;
15383;SDS011;7790;53.022;12.968;2023-04-03T17:57:43;4.67;;;1.30;;
15383;SDS011;7790;53.022;12.968;2023-04-03T18:01:44;5.03;;;1.20;;
15383;SDS011;7790;53.022;12.968;2023-04-03T18:05:46;16.37;;;2.37;;
15383;SDS011;7790;53.022;12.968;2023-04-03T18:09:50;25.93;;;2.53;;
15383;SDS011;7790;53.022;12.968;2023-04-03T18:13:52;42.73;;;3.00;;
15383;SDS011;7790;53.022;12.968;2023-04-03T18:17:56;18.00;;;2.53;;
15383;SDS011;7790;53.022;12.968;2023-04-03T18:21:59;6.27;;;1.93;;
15383;SDS011;7790;53.022;12.968;2023-04-03T18:26:03;9.17;;;1.93;;
15383;SDS011;7790;53.022;12.968;2023-04-03T18:30:06;7.40;;;1.70;;
15383;SDS011;7790;53.022;12.968;2023-04-03T18:34:10;9.97;;;1.90;;
15383;SDS011;7790;53.022;12.968;2023-04-03T18:38:12;5.60;;;2.00;;
15383;SDS011;7790;53.022;12.968;2023-04-03T18:42:14;9.27;;;2.50;;
15383;SDS011;7790;53.022;12.968;2023-04-03T18:46:17;7.63;;;2.47;;
15383;SDS011;7790;53.022;12.968;2023-04-03T18:50:18;10.57;;;2.40;;
15383;SDS011;7790;53.022;12.968;2023-04-03T18:54:19;12.17;;;2.77;;
15383;SDS011;7790;53.022;12.968;2023-04-03T18:58:20;10.73;;;2.73;;
15383;SDS011;7790;53.022;12.968;2023-04-03T19:02:21;10.93;;;2.43;;
15383;SDS011;7790;53.022;12.968;2023-04-03T19:06:24;9.37;;;2.43;;
15383;SDS011;7790;53.022;12.968;2023-04-03T19:10:27;6.97;;;2.20;;
15383;SDS011;7790;53.022;12.968;2023-04-03T19:14:28;10.90;;;2.17;;
15383;SDS011;7790;53.022;12.968;2023-04-03T19:18:29;10.07;;;2.30;;
15383;SDS011;7790;53.022;12.968;2023-04-03T19:22:30;19.27;;;2.60;;
15383;SDS011;7790;53.022;12.968;2023-04-03T19:26:30;5.57;;;1.93;;
15383;SDS011;7790;53.022;12.968;2023-04-03T19:30:31;6.33;;;1.80;;
15383;SDS011;7790;53.022;12.968;2023-04-03T19:34:32;9.33;;;1.80;;
15383;SDS011;7790;53.022;12.968;2023-04-03T19:38:33;9.97;;;2.57;;
15383;SDS011;7790;53.022;12.968;2023-04-03T19:42:34;8.03;;;2.00;;
15383;SDS011;7790;53.022;12.968;2023-04-03T19:46:42;7.63;;;2.20;;
15383;SDS011;7790;53.022;12.968;2023-04-03T19:50:42;5.10;;;1.80;;
15383;SDS011;7790;53.022;12.968;2023-04-03T19:54:43;4.10;;;1.70;;
15383;SDS011;7790;53.022;12.968;2023-04-03T19:58:44;3.33;;;1.30;;
15383;SDS011;7790;53.022;12.968;2023-04-03T20:02:52;10.33;;;1.80;;
15383;SDS011;7790;53.022;12.968;2023-04-03T20:06:53;4.00;;;1.50;;
15383;SDS011;7790;53.022;12.968;2023-04-03T20:10:54;3.70;;;1.30;;
15383;SDS011;7790;53.022;12.968;2023-04-03T20:14:55;3.50;;;1.60;;
15383;SDS011;7790;53.022;12.968;2023-04-03T20:18:57;1.73;;;1.30;;
15383;SDS011;7790;53.022;12.968;2023-04-03T20:22:59;2.83;;;1.30;;
15383;SDS011;7790;53.022;12.968;2023-04-03T20:27:00;4.90;;;1.50;;
15383;SDS011;7790;53.022;12.968;2023-04-03T20:31:01;2.60;;;1.40;;
15383;SDS011;7790;53.022;12.968;2023-04-03T20:35:03;2.07;;;1.17;;
15383;SDS011;7790;53.022;12.968;2023-04-03T20:39:04;3.40;;;1.23;;
15383;SDS011;7790;53.022;12.968;2023-04-03T20:43:05;3.37;;;1.03;;
15383;SDS011;7790;53.022;12.968;2023-04-03T20:47:06;1.80;;;1.40;;
15383;SDS011;7790;53.022;12.968;2023-04-03T20:51:15;3.27;;;1.07;;
15383;SDS011;7790;53.022;12.968;2023-04-03T20:55:18;1.63;;;0.90;;
15383;SDS011;7790;53.022;12.968;2023-04-03T20:59:18;1.47;;;1.00;;
15383;SDS011;7790;53.022;12.968;2023-04-03T21:03:19;2.17;;;0.97;;
15383;SDS011;7790;53.022;12.968;2023-04-03T21:20:38;2.00;;;1.03;;
15383;SDS011;7790;53.022;12.968;2023-04-03T21:24:39;3.23;;;1.00;;
15383;SDS011;7790;53.022;12.968;2023-04-03T21:28:40;1.73;;;0.83;;
15383;SDS011;7790;53.022;12.968;2023-04-03T21:32:42;1.37;;;0.90;;
15383;SDS011;7790;53.022;12.968;2023-04-03T21:36:42;1.97;;;0.87;;
15383;SDS011;7790;53.022;12.968;2023-04-03T21:40:44;1.70;;;1.20;;
15383;SDS011;7790;53.022;12.968;2023-04-03T21:44:46;1.30;;;1.00;;
15383;SDS011;7790;53.022;12.968;2023-04-03T21:48:48;1.80;;;0.97;;
15383;SDS011;7790;53.022;12.968;2023-04-03T21:52:51;2.40;;;0.83;;
15383;SDS011;7790;53.022;12.968;2023-04-03T21:56:53;2.17;;;0.80;;
15383;SDS011;7790;53.022;12.968;2023-04-03T22:00:54;0.83;;;0.57;;
15383;SDS011;7790;53.022;12.968;2023-04-03T22:04:55;1.43;;;0.70;;
15383;SDS011;7790;53.022;12.968;2023-04-03T22:08:55;1.00;;;0.90;;
15383;SDS011;7790;53.022;12.968;2023-04-03T22:12:56;0.70;;;0.60;;
15383;SDS011;7790;53.022;12.968;2023-04-03T22:16:57;0.93;;;0.70;;
15383;SDS011;7790;53.022;12.968;2023-04-03T22:20:58;1.73;;;0.83;;
15383;SDS011;7790;53.022;12.968;2023-04-03T22:24:59;1.23;;;0.80;;
15383;SDS011;7790;53.022;12.968;2023-04-03T22:29:01;0.83;;;0.60;;
15383;SDS011;7790;53.022;12.968;2023-04-03T22:33:03;0.90;;;0.60;;
15383;SDS011;7790;53.022;12.968;2023-04-03T22:37:04;0.60;;;0.60;;
15383;SDS011;7790;53.022;12.968;2023-04-03T22:41:05;1.07;;;0.80;;
15383;SDS011;7790;53.022;12.968;2023-04-03T22:45:06;0.70;;;0.70;;
15383;SDS011;7790;53.022;12.968;2023-04-03T22:49:08;0.73;;;0.50;;
15383;SDS011;7790;53.022;12.968;2023-04-03T22:53:08;0.73;;;0.73;;
15383;SDS011;7790;53.022;12.968;2023-04-03T22:57:10;0.67;;;0.60;;
15383;SDS011;7790;53.022;12.968;2023-04-03T23:01:11;0.87;;;0.77;;
15383;SDS011;7790;53.022;12.968;2023-04-03T23:05:14;0.50;;;0.37;;
15383;SDS011;7790;53.022;12.968;2023-04-03T23:09:15;0.57;;;0.53;;
15383;SDS011;7790;53.022;12.968;2023-04-03T23:13:16;0.97;;;0.53;;
15383;SDS011;7790;53.022;12.968;2023-04-03T23:17:17;0.87;;;0.80;;
15383;SDS011;7790;53.022;12.968;2023-04-03T23:21:18;0.70;;;0.60;;
15383;SDS011;7790;53.022;12.968;2023-04-03T23:25:18;1.43;;;0.80;;
15383;SDS011;7790;53.022;12.968;2023-04-03T23:29:20;1.40;;;0.50;;
15383;SDS011;7790;53.022;12.968;2023-04-03T23:33:21;0.80;;;0.60;;
15383;SDS011;7790;53.022;12.968;2023-04-03T23:37:21;0.93;;;0.60;;
15383;SDS011;7790;53.022;12.968;2023-04-03T23:41:22;0.57;;;0.53;;
15383;SDS011;7790;53.022;12.968;2023-04-03T23:45:24;0.80;;;0.50;;
15383;SDS011;7790;53.022;12.968;2023-04-03T23:49:25;0.63;;;0.60;;
15383;SDS011;7790;53.022;12.968;2023-04-03T23:53:26;0.40;;;0.40;;
15383;SDS011;7790;53.022;12.968;2023-04-03T23:57:27;0.60;;;0.60;;
